sensor_id;sensor_type;location;lat;lon;timestamp;pressure;altitude;pressure_sealevel;temperature;humidity
37298;BME280;30517;51.932;4.278;2022-10-15T00:01:50;100724.88;;;15.11;63.43
37298;BME280;30517;51.932;4.278;2022-10-15T00:04:30;100750.19;;;15.27;63.31
37298;BME280;30517;51.932;4.278;2022-10-15T00:07:11;100736.19;;;15.20;63.27
37298;BME280;30517;51.932;4.278;2022-10-15T00:09:52;100731.84;;;15.15;63.04
37298;BME280;30517;51.932;4.278;2022-10-15T00:12:33;100753.78;;;15.24;63.55
37298;BME280;30517;51.932;4.278;2022-10-15T00:15:14;100747.59;;;15.24;63.43
37298;BME280;30517;51.932;4.278;2022-10-15T00:17:55;100747.66;;;15.21;63.28
37298;BME280;30517;51.932;4.278;2022-10-15T00:20:35;100746.75;;;15.22;63.28
37298;BME280;30517;51.932;4.278;2022-10-15T00:23:20;100744.16;;;15.19;63.44
37298;BME280;30517;51.932;4.278;2022-10-15T00:28:43;100704.78;;;14.99;63.42
37298;BME280;30517;51.932;4.278;2022-10-15T00:31:25;100733.47;;;15.22;63.34
37298;BME280;30517;51.932;4.278;2022-10-15T00:34:08;100729.97;;;15.20;63.45
37298;BME280;30517;51.932;4.278;2022-10-15T00:36:49;100723.94;;;15.13;63.52
37298;BME280;30517;51.932;4.278;2022-10-15T00:39:30;100710.75;;;15.09;63.63
37298;BME280;30517;51.932;4.278;2022-10-15T00:42:11;100738.84;;;15.19;63.31
37298;BME280;30517;51.932;4.278;2022-10-15T00:44:55;100692.38;;;14.99;63.18
37298;BME280;30517;51.932;4.278;2022-10-15T00:47:38;100715.13;;;15.11;63.59
37298;BME280;30517;51.932;4.278;2022-10-15T00:50:24;100654.91;;;14.73;63.47
37298;BME280;30517;51.932;4.278;2022-10-15T00:53:07;100727.44;;;15.15;63.62
37298;BME280;30517;51.932;4.278;2022-10-15T00:55:48;100727.38;;;15.17;63.44
37298;BME280;30517;51.932;4.278;2022-10-15T00:58:31;100726.50;;;15.18;63.38
37298;BME280;30517;51.932;4.278;2022-10-15T01:01:13;100714.09;;;15.17;63.39
37298;BME280;30517;51.932;4.278;2022-10-15T01:03:55;100708.09;;;15.09;63.29
37298;BME280;30517;51.932;4.278;2022-10-15T01:06:36;100707.06;;;15.14;63.52
37298;BME280;30517;51.932;4.278;2022-10-15T01:09:17;100710.56;;;15.16;63.38
37298;BME280;30517;51.932;4.278;2022-10-15T01:11:59;100709.63;;;15.19;63.16
37298;BME280;30517;51.932;4.278;2022-10-15T01:14:50;100710.59;;;15.15;63.24
37298;BME280;30517;51.932;4.278;2022-10-15T01:17:44;100709.66;;;15.17;63.09
37298;BME280;30517;51.932;4.278;2022-10-15T01:23:48;100706.19;;;15.15;63.56
37298;BME280;30517;51.932;4.278;2022-10-15T01:29:51;100707.13;;;15.13;63.24
37298;BME280;30517;51.932;4.278;2022-10-15T01:32:46;100700.88;;;15.14;63.09
37298;BME280;30517;51.932;4.278;2022-10-15T01:35:40;100700.88;;;15.14;63.21
37298;BME280;30517;51.932;4.278;2022-10-15T01:38:35;100691.19;;;15.13;63.14
37298;BME280;30517;51.932;4.278;2022-10-15T01:44:26;100700.03;;;15.12;63.34
37298;BME280;30517;51.932;4.278;2022-10-15T01:48:11;100626.75;;;14.66;63.14
37298;BME280;30517;51.932;4.278;2022-10-15T01:50:26;100690.25;;;15.14;62.99
37298;BME280;30517;51.932;4.278;2022-10-15T01:53:10;100689.34;;;15.15;63.02
37298;BME280;30517;51.932;4.278;2022-10-15T01:55:56;100661.28;;;15.03;62.95
37298;BME280;30517;51.932;4.278;2022-10-15T01:58:41;100631.56;;;14.87;63.17
37298;BME280;30517;51.932;4.278;2022-10-15T02:01:22;100676.97;;;15.14;63.27
37298;BME280;30517;51.932;4.278;2022-10-15T02:04:17;100673.47;;;15.12;63.18
37298;BME280;30517;51.932;4.278;2022-10-15T02:07:08;100666.44;;;15.09;63.14
37298;BME280;30517;51.932;4.278;2022-10-15T02:09:53;100664.69;;;15.10;63.25
37298;BME280;30517;51.932;4.278;2022-10-15T02:13:03;100660.28;;;15.09;63.03
37298;BME280;30517;51.932;4.278;2022-10-15T02:18:45;100644.41;;;15.05;63.54
37298;BME280;30517;51.932;4.278;2022-10-15T02:21:43;100640.81;;;15.08;63.17
37298;BME280;30517;51.932;4.278;2022-10-15T02:24:35;100635.53;;;15.07;63.28
37298;BME280;30517;51.932;4.278;2022-10-15T02:27:19;100626.69;;;15.06;63.29
37298;BME280;30517;51.932;4.278;2022-10-15T02:30:02;100635.50;;;15.08;62.93
37298;BME280;30517;51.932;4.278;2022-10-15T02:32:47;100584.06;;;14.75;63.22
37298;BME280;30517;51.932;4.278;2022-10-15T02:35:31;100623.25;;;15.01;63.22
37298;BME280;30517;51.932;4.278;2022-10-15T02:38:15;100618.03;;;14.98;63.35
37298;BME280;30517;51.932;4.278;2022-10-15T02:40:57;100628.50;;;15.04;63.22
37298;BME280;30517;51.932;4.278;2022-10-15T02:43:39;100610.13;;;14.96;63.74
37298;BME280;30517;51.932;4.278;2022-10-15T02:46:20;100601.47;;;14.88;63.15
37298;BME280;30517;51.932;4.278;2022-10-15T02:49:01;100617.94;;;15.01;63.53
37298;BME280;30517;51.932;4.278;2022-10-15T02:51:42;100618.03;;;14.98;63.52
37298;BME280;30517;51.932;4.278;2022-10-15T02:54:22;100617.94;;;15.01;63.11
37298;BME280;30517;51.932;4.278;2022-10-15T02:57:03;100589.16;;;14.84;63.41
37298;BME280;30517;51.932;4.278;2022-10-15T02:59:44;100612.72;;;14.98;63.38
37298;BME280;30517;51.932;4.278;2022-10-15T03:02:24;100604.66;;;15.01;63.49
37298;BME280;30517;51.932;4.278;2022-10-15T03:05:05;100602.06;;;14.99;63.22
37298;BME280;30517;51.932;4.278;2022-10-15T03:07:46;100573.22;;;14.84;63.02
37298;BME280;30517;51.932;4.278;2022-10-15T03:10:27;100593.34;;;14.94;63.34
37298;BME280;30517;51.932;4.278;2022-10-15T03:13:08;100599.44;;;14.98;63.30
37298;BME280;30517;51.932;4.278;2022-10-15T03:15:48;100605.66;;;14.97;63.21
37298;BME280;30517;51.932;4.278;2022-10-15T03:18:29;100603.00;;;14.97;63.15
37298;BME280;30517;51.932;4.278;2022-10-15T03:21:10;100601.31;;;14.94;63.51
37298;BME280;30517;51.932;4.278;2022-10-15T03:23:51;100603.91;;;14.96;63.18
37298;BME280;30517;51.932;4.278;2022-10-15T03:26:32;100606.63;;;14.93;63.23
37298;BME280;30517;51.932;4.278;2022-10-15T03:29:12;100603.03;;;14.95;63.21
37298;BME280;30517;51.932;4.278;2022-10-15T03:31:53;100612.09;;;14.88;63.45
37298;BME280;30517;51.932;4.278;2022-10-15T03:34:34;100606.69;;;14.91;63.42
37298;BME280;30517;51.932;4.278;2022-10-15T03:37:15;100609.34;;;14.91;63.63
37298;BME280;30517;51.932;4.278;2022-10-15T03:39:56;100619.91;;;14.93;63.14
37298;BME280;30517;51.932;4.278;2022-10-15T03:42:36;100606.13;;;14.77;63.41
37298;BME280;30517;51.932;4.278;2022-10-15T03:45:18;100618.25;;;14.89;63.39
37298;BME280;30517;51.932;4.278;2022-10-15T03:47:59;100619.13;;;14.89;63.64
37298;BME280;30517;51.932;4.278;2022-10-15T03:50:40;100604.47;;;14.73;63.82
37298;BME280;30517;51.932;4.278;2022-10-15T03:53:21;100630.72;;;14.85;63.35
37298;BME280;30517;51.932;4.278;2022-10-15T03:56:04;100608.22;;;14.64;63.67
37298;BME280;30517;51.932;4.278;2022-10-15T03:58:44;100632.47;;;14.86;63.50
37298;BME280;30517;51.932;4.278;2022-10-15T04:01:25;100624.59;;;14.83;63.70
37298;BME280;30517;51.932;4.278;2022-10-15T04:04:06;100628.97;;;14.84;63.71
37298;BME280;30517;51.932;4.278;2022-10-15T04:06:47;100621.84;;;14.86;63.42
37298;BME280;30517;51.932;4.278;2022-10-15T04:09:28;100614.03;;;14.80;63.76
37298;BME280;30517;51.932;4.278;2022-10-15T04:12:08;100582.53;;;14.65;63.32
37298;BME280;30517;51.932;4.278;2022-10-15T04:14:49;100574.66;;;14.62;63.17
37298;BME280;30517;51.932;4.278;2022-10-15T04:17:30;100617.50;;;14.82;63.53
37298;BME280;30517;51.932;4.278;2022-10-15T04:20:11;100616.69;;;14.80;63.51
37298;BME280;30517;51.932;4.278;2022-10-15T04:22:51;100599.38;;;14.64;63.89
37298;BME280;30517;51.932;4.278;2022-10-15T04:25:32;100609.69;;;14.77;63.63
37298;BME280;30517;51.932;4.278;2022-10-15T04:28:13;100603.44;;;14.78;63.69
37298;BME280;30517;51.932;4.278;2022-10-15T04:30:58;100608.69;;;14.81;63.42
37298;BME280;30517;51.932;4.278;2022-10-15T04:33:39;100567.53;;;14.64;63.44
37298;BME280;30517;51.932;4.278;2022-10-15T04:36:19;100593.84;;;14.73;63.94
37298;BME280;30517;51.932;4.278;2022-10-15T04:39:00;100588.50;;;14.74;63.59
37298;BME280;30517;51.932;4.278;2022-10-15T04:41:41;100598.16;;;14.77;63.65
37298;BME280;30517;51.932;4.278;2022-10-15T04:44:22;100595.56;;;14.75;63.83
37298;BME280;30517;51.932;4.278;2022-10-15T04:47:03;100596.44;;;14.76;63.63
37298;BME280;30517;51.932;4.278;2022-10-15T04:49:44;100589.31;;;14.78;63.67
37298;BME280;30517;51.932;4.278;2022-10-15T04:52:24;100595.56;;;14.75;63.74
37298;BME280;30517;51.932;4.278;2022-10-15T04:55:05;100578.88;;;14.69;63.87
37298;BME280;30517;51.932;4.278;2022-10-15T04:57:46;100468.84;;;14.07;63.54
37298;BME280;30517;51.932;4.278;2022-10-15T05:00:27;100556.06;;;14.62;63.83
37298;BME280;30517;51.932;4.278;2022-10-15T05:03:08;100577.91;;;14.74;63.85
37298;BME280;30517;51.932;4.278;2022-10-15T05:05:49;100554.31;;;14.60;63.95
37298;BME280;30517;51.932;4.278;2022-10-15T05:08:30;100569.28;;;14.63;63.88
37298;BME280;30517;51.932;4.278;2022-10-15T05:11:17;100585.81;;;14.76;63.66
37298;BME280;30517;51.932;4.278;2022-10-15T05:13:58;100572.69;;;14.68;63.73
37298;BME280;30517;51.932;4.278;2022-10-15T05:16:39;100553.47;;;14.58;63.72
37298;BME280;30517;51.932;4.278;2022-10-15T05:19:19;100582.31;;;14.74;63.49
37298;BME280;30517;51.932;4.278;2022-10-15T05:22:00;100557.88;;;14.59;64.03
37298;BME280;30517;51.932;4.278;2022-10-15T05:24:41;100572.59;;;14.73;63.80
37298;BME280;30517;51.932;4.278;2022-10-15T05:27:22;100562.94;;;14.70;63.85
37298;BME280;30517;51.932;4.278;2022-10-15T05:30:03;100559.34;;;14.71;63.64
37298;BME280;30517;51.932;4.278;2022-10-15T05:32:44;100559.25;;;14.76;63.77
37298;BME280;30517;51.932;4.278;2022-10-15T05:35:24;100562.00;;;14.73;63.86
37298;BME280;30517;51.932;4.278;2022-10-15T05:38:05;100535.78;;;14.59;63.64
37298;BME280;30517;51.932;4.278;2022-10-15T05:40:47;100561.22;;;14.68;63.77
37298;BME280;30517;51.932;4.278;2022-10-15T05:43:28;100576.13;;;14.73;63.75
37298;BME280;30517;51.932;4.278;2022-10-15T05:46:09;100571.75;;;14.71;63.92
37298;BME280;30517;51.932;4.278;2022-10-15T05:48:51;100572.53;;;14.76;63.59
37298;BME280;30517;51.932;4.278;2022-10-15T05:51:33;100574.25;;;14.77;63.38
37298;BME280;30517;51.932;4.278;2022-10-15T05:54:13;100568.25;;;14.69;63.91
37298;BME280;30517;51.932;4.278;2022-10-15T05:56:54;100566.53;;;14.68;63.94
37298;BME280;30517;51.932;4.278;2022-10-15T05:59:35;100573.44;;;14.75;63.39
37298;BME280;30517;51.932;4.278;2022-10-15T06:02:16;100562.09;;;14.68;63.92
37298;BME280;30517;51.932;4.278;2022-10-15T06:04:56;100561.13;;;14.72;63.72
37298;BME280;30517;51.932;4.278;2022-10-15T06:07:37;100569.94;;;14.73;63.83
37298;BME280;30517;51.932;4.278;2022-10-15T06:10:18;100559.22;;;14.77;63.53
37298;BME280;30517;51.932;4.278;2022-10-15T06:12:59;100569.88;;;14.76;63.64
37298;BME280;30517;51.932;4.278;2022-10-15T06:15:41;100553.22;;;14.69;63.59
37298;BME280;30517;51.932;4.278;2022-10-15T06:18:22;100554.03;;;14.73;63.51
37298;BME280;30517;51.932;4.278;2022-10-15T06:21:04;100558.47;;;14.72;63.58
37298;BME280;30517;51.932;4.278;2022-10-15T06:23:45;100559.34;;;14.73;63.73
37298;BME280;30517;51.932;4.278;2022-10-15T06:26:26;100561.84;;;14.79;63.40
37298;BME280;30517;51.932;4.278;2022-10-15T06:29:07;100558.31;;;14.78;63.48
37298;BME280;30517;51.932;4.278;2022-10-15T06:31:47;100556.56;;;14.77;63.36
37298;BME280;30517;51.932;4.278;2022-10-15T06:34:28;100561.13;;;14.71;63.92
37298;BME280;30517;51.932;4.278;2022-10-15T06:37:09;100522.59;;;14.54;63.62
37298;BME280;30517;51.932;4.278;2022-10-15T06:39:50;100549.63;;;14.72;63.52
37298;BME280;30517;51.932;4.278;2022-10-15T06:42:31;100557.59;;;14.72;63.60
37298;BME280;30517;51.932;4.278;2022-10-15T06:45:12;100550.50;;;14.72;63.56
37298;BME280;30517;51.932;4.278;2022-10-15T06:47:53;100551.34;;;14.74;63.65
37298;BME280;30517;51.932;4.278;2022-10-15T06:50:35;100545.22;;;14.71;63.75
37298;BME280;30517;51.932;4.278;2022-10-15T06:53:16;100564.72;;;14.70;63.84
37298;BME280;30517;51.932;4.278;2022-10-15T06:55:58;100551.38;;;14.71;63.81
37298;BME280;30517;51.932;4.278;2022-10-15T06:58:42;100553.09;;;14.74;63.70
37298;BME280;30517;51.932;4.278;2022-10-15T07:01:23;100557.53;;;14.75;63.50
37298;BME280;30517;51.932;4.278;2022-10-15T07:04:04;100551.97;;;14.84;63.25
37298;BME280;30517;51.932;4.278;2022-10-15T07:06:44;100553.03;;;14.77;63.46
37298;BME280;30517;51.932;4.278;2022-10-15T07:09:25;100555.75;;;14.74;63.54
37298;BME280;30517;51.932;4.278;2022-10-15T07:12:06;100531.31;;;14.61;63.61
37298;BME280;30517;51.932;4.278;2022-10-15T07:14:47;100554.94;;;14.72;63.55
37298;BME280;30517;51.932;4.278;2022-10-15T07:17:28;100550.41;;;14.75;63.53
37298;BME280;30517;51.932;4.278;2022-10-15T07:20:10;100538.81;;;14.79;63.38
37298;BME280;30517;51.932;4.278;2022-10-15T07:22:58;100530.22;;;14.68;63.72
37298;BME280;30517;51.932;4.278;2022-10-15T07:25:39;100537.94;;;14.79;63.42
37298;BME280;30517;51.932;4.278;2022-10-15T07:28:20;100536.13;;;14.81;63.57
37298;BME280;30517;51.932;4.278;2022-10-15T07:31:02;100522.16;;;14.73;63.61
37298;BME280;30517;51.932;4.278;2022-10-15T07:33:43;100527.56;;;14.68;63.90
37298;BME280;30517;51.932;4.278;2022-10-15T07:36:25;100521.41;;;14.68;63.53
37298;BME280;30517;51.932;4.278;2022-10-15T07:39:06;100517.81;;;14.69;63.72
37298;BME280;30517;51.932;4.278;2022-10-15T07:41:47;100537.00;;;14.81;63.76
37298;BME280;30517;51.932;4.278;2022-10-15T07:44:27;100524.75;;;14.76;63.65
37298;BME280;30517;51.932;4.278;2022-10-15T07:47:08;100532.47;;;14.85;63.35
37298;BME280;30517;51.932;4.278;2022-10-15T07:49:49;100517.78;;;14.72;63.83
37298;BME280;30517;51.932;4.278;2022-10-15T07:52:31;100521.13;;;14.80;64.17
37298;BME280;30517;51.932;4.278;2022-10-15T07:55:12;100522.16;;;14.73;64.34
37298;BME280;30517;51.932;4.278;2022-10-15T07:57:56;100516.75;;;14.77;63.65
37298;BME280;30517;51.932;4.278;2022-10-15T08:00:37;100503.56;;;14.73;64.06
37298;BME280;30517;51.932;4.278;2022-10-15T08:03:18;100516.00;;;14.72;64.36
37298;BME280;30517;51.932;4.278;2022-10-15T08:06:00;100504.50;;;14.72;64.25
37298;BME280;30517;51.932;4.278;2022-10-15T08:08:41;100510.69;;;14.72;64.05
37298;BME280;30517;51.932;4.278;2022-10-15T08:11:23;100489.84;;;14.55;64.38
37298;BME280;30517;51.932;4.278;2022-10-15T08:14:03;100504.41;;;14.75;63.91
37298;BME280;30517;51.932;4.278;2022-10-15T08:16:44;100495.59;;;14.74;63.99
37298;BME280;30517;51.932;4.278;2022-10-15T08:19:25;100506.06;;;14.79;63.97
37298;BME280;30517;51.932;4.278;2022-10-15T08:22:06;100504.50;;;14.72;64.11
37298;BME280;30517;51.932;4.278;2022-10-15T08:24:46;100495.84;;;14.64;64.54
37298;BME280;30517;51.932;4.278;2022-10-15T08:27:27;100488.75;;;14.64;64.64
37298;BME280;30517;51.932;4.278;2022-10-15T08:30:08;100500.09;;;14.71;64.66
37298;BME280;30517;51.932;4.278;2022-10-15T08:32:50;100492.78;;;14.80;63.73
37298;BME280;30517;51.932;4.278;2022-10-15T08:35:30;100479.59;;;14.76;63.65
37298;BME280;30517;51.932;4.278;2022-10-15T08:38:14;100504.09;;;14.87;63.68
37298;BME280;30517;51.932;4.278;2022-10-15T08:40:56;100505.78;;;14.91;63.72
37298;BME280;30517;51.932;4.278;2022-10-15T08:43:40;100506.63;;;14.93;63.59
37298;BME280;30517;51.932;4.278;2022-10-15T08:46:27;100518.06;;;14.95;63.73
37298;BME280;30517;51.932;4.278;2022-10-15T08:50:04;100498.66;;;14.93;64.06
37298;BME280;30517;51.932;4.278;2022-10-15T08:52:42;100481.97;;;14.88;63.84
37298;BME280;30517;51.932;4.278;2022-10-15T08:55:28;100480.75;;;15.00;63.95
37298;BME280;30517;51.932;4.278;2022-10-15T08:58:15;100499.44;;;14.97;63.57
37298;BME280;30517;51.932;4.278;2022-10-15T09:01:05;100496.66;;;15.01;63.69
37298;BME280;30517;51.932;4.278;2022-10-15T09:04:05;100477.25;;;14.98;63.67
37298;BME280;30517;51.932;4.278;2022-10-15T09:07:06;100477.94;;;15.06;63.69
37298;BME280;30517;51.932;4.278;2022-10-15T09:09:51;100463.13;;;14.97;63.52
37298;BME280;30517;51.932;4.278;2022-10-15T09:15:44;100450.72;;;14.98;63.53
37298;BME280;30517;51.932;4.278;2022-10-15T09:18:30;100450.84;;;14.93;63.62
37298;BME280;30517;51.932;4.278;2022-10-15T09:21:13;100478.88;;;15.03;63.93
37298;BME280;30517;51.932;4.278;2022-10-15T09:23:57;100479.22;;;14.91;72.52
37298;BME280;30517;51.932;4.278;2022-10-15T09:29:46;100381.75;;;14.62;69.10
37298;BME280;30517;51.932;4.278;2022-10-15T09:32:34;100474.31;;;15.09;69.94
37298;BME280;30517;51.932;4.278;2022-10-15T09:35:24;100477.63;;;15.18;69.12
37298;BME280;30517;51.932;4.278;2022-10-15T09:38:34;100476.66;;;15.21;68.34
37298;BME280;30517;51.932;4.278;2022-10-15T09:44:13;100458.94;;;15.21;67.02
37298;BME280;30517;51.932;4.278;2022-10-15T09:46:54;100464.16;;;15.24;67.18
37298;BME280;30517;51.932;4.278;2022-10-15T09:49:34;100450.00;;;15.24;66.96
37298;BME280;30517;51.932;4.278;2022-10-15T09:55:32;100455.25;;;15.25;66.77
37298;BME280;30517;51.932;4.278;2022-10-15T09:58:19;100460.94;;;15.13;66.72
37298;BME280;30517;51.932;4.278;2022-10-15T10:01:04;100465.13;;;15.22;69.04
37298;BME280;30517;51.932;4.278;2022-10-15T10:03:50;100458.72;;;15.29;69.53
37298;BME280;30517;51.932;4.278;2022-10-15T10:06:42;100455.97;;;15.32;68.68
37298;BME280;30517;51.932;4.278;2022-10-15T10:09:32;100455.91;;;15.34;68.26
37298;BME280;30517;51.932;4.278;2022-10-15T10:12:20;100463.84;;;15.35;68.07
37298;BME280;30517;51.932;4.278;2022-10-15T10:15:06;100461.19;;;15.35;67.54
37298;BME280;30517;51.932;4.278;2022-10-15T10:17:53;100459.41;;;15.36;67.16
37298;BME280;30517;51.932;4.278;2022-10-15T10:20:34;100466.44;;;15.38;67.00
37298;BME280;30517;51.932;4.278;2022-10-15T10:23:24;100454.97;;;15.36;66.78
37298;BME280;30517;51.932;4.278;2022-10-15T10:26:07;100455.91;;;15.34;66.88
37298;BME280;30517;51.932;4.278;2022-10-15T10:28:52;100454.97;;;15.36;66.80
37298;BME280;30517;51.932;4.278;2022-10-15T10:31:34;100454.94;;;15.38;66.77
37298;BME280;30517;51.932;4.278;2022-10-15T10:34:29;100457.56;;;15.39;66.39
37298;BME280;30517;51.932;4.278;2022-10-15T10:37:11;100448.94;;;15.31;66.46
37298;BME280;30517;51.932;4.278;2022-10-15T10:39:56;100454.09;;;15.36;66.09
37298;BME280;30517;51.932;4.278;2022-10-15T10:42:38;100427.97;;;15.20;66.13
37298;BME280;30517;51.932;4.278;2022-10-15T10:45:21;100454.06;;;15.37;66.40
37298;BME280;30517;51.932;4.278;2022-10-15T10:48:19;100453.13;;;15.38;66.23
37298;BME280;30517;51.932;4.278;2022-10-15T10:51:24;100451.31;;;15.40;66.37
37298;BME280;30517;51.932;4.278;2022-10-15T10:54:05;100456.53;;;15.43;66.10
37298;BME280;30517;51.932;4.278;2022-10-15T10:56:55;100449.44;;;15.44;66.35
37298;BME280;30517;51.932;4.278;2022-10-15T10:59:44;100453.03;;;15.41;66.37
37298;BME280;30517;51.932;4.278;2022-10-15T11:02:27;100450.28;;;15.46;66.67
37298;BME280;30517;51.932;4.278;2022-10-15T11:05:10;100447.56;;;15.16;73.19
37298;BME280;30517;51.932;4.278;2022-10-15T11:11:16;100437.72;;;15.51;69.68
37298;BME280;30517;51.932;4.278;2022-10-15T11:24:04;100452.63;;;15.57;69.23
37298;BME280;30517;51.932;4.278;2022-10-15T11:27:03;100456.44;;;15.46;69.50
37298;BME280;30517;51.932;4.278;2022-10-15T11:30:02;100458.81;;;15.57;70.00
37298;BME280;30517;51.932;4.278;2022-10-15T11:33:12;100453.38;;;15.60;69.57
37298;BME280;30517;51.932;4.278;2022-10-15T11:39:16;100445.31;;;15.63;69.41
37298;BME280;30517;51.932;4.278;2022-10-15T11:45:00;100463.88;;;15.66;69.01
37298;BME280;30517;51.932;4.278;2022-10-15T11:47:59;100467.38;;;15.68;69.70
37298;BME280;30517;51.932;4.278;2022-10-15T11:50:50;100470.91;;;15.69;69.50
37298;BME280;30517;51.932;4.278;2022-10-15T11:53:47;100468.25;;;15.67;69.82
37298;BME280;30517;51.932;4.278;2022-10-15T11:56:36;100455.00;;;15.66;68.97
37298;BME280;30517;51.932;4.278;2022-10-15T11:59:41;100463.13;;;15.61;69.83
37298;BME280;30517;51.932;4.278;2022-10-15T12:02:36;100475.31;;;15.70;69.80
37298;BME280;30517;51.932;4.278;2022-10-15T12:05:28;100475.31;;;15.70;69.67
37298;BME280;30517;51.932;4.278;2022-10-15T12:08:11;100453.28;;;15.63;69.37
37298;BME280;30517;51.932;4.278;2022-10-15T12:14:36;100483.97;;;15.77;69.13
37298;BME280;30517;51.932;4.278;2022-10-15T12:20:22;100457.63;;;15.69;69.54
37298;BME280;30517;51.932;4.278;2022-10-15T12:23:18;100463.59;;;15.77;69.60
37298;BME280;30517;51.932;4.278;2022-10-15T12:26:01;100464.28;;;15.82;69.53
37298;BME280;30517;51.932;4.278;2022-10-15T12:29:04;100472.28;;;15.82;69.83
37298;BME280;30517;51.932;4.278;2022-10-15T12:31:50;100476.63;;;15.85;69.33
37298;BME280;30517;51.932;4.278;2022-10-15T12:34:39;100475.75;;;15.84;69.58
37298;BME280;30517;51.932;4.278;2022-10-15T12:37:23;100485.44;;;15.87;69.47
37298;BME280;30517;51.932;4.278;2022-10-15T12:40:27;100478.31;;;15.87;69.62
37298;BME280;30517;51.932;4.278;2022-10-15T12:43:15;100451.25;;;15.75;69.55
37298;BME280;30517;51.932;4.278;2022-10-15T12:45:59;100480.91;;;15.90;69.15
37298;BME280;30517;51.932;4.278;2022-10-15T12:48:45;100468.06;;;15.75;69.40
37298;BME280;30517;51.932;4.278;2022-10-15T12:54:36;100504.75;;;15.93;68.89
37298;BME280;30517;51.932;4.278;2022-10-15T13:03:33;100462.97;;;15.66;69.39
37298;BME280;30517;51.932;4.278;2022-10-15T13:11:52;100541.72;;;16.03;68.97
37298;BME280;30517;51.932;4.278;2022-10-15T13:14:37;100546.09;;;16.05;69.56
37298;BME280;30517;51.932;4.278;2022-10-15T13:17:21;100546.03;;;16.07;69.13
37298;BME280;30517;51.932;4.278;2022-10-15T13:20:06;100541.53;;;16.09;68.95
37298;BME280;30517;51.932;4.278;2022-10-15T13:22:47;100546.84;;;16.09;69.29
37298;BME280;30517;51.932;4.278;2022-10-15T13:25:28;100546.75;;;16.12;68.69
37298;BME280;30517;51.932;4.278;2022-10-15T13:31:20;100542.22;;;16.15;68.68
37298;BME280;30517;51.932;4.278;2022-10-15T13:34:27;100550.16;;;16.17;68.44
37298;BME280;30517;51.932;4.278;2022-10-15T13:37:19;100554.50;;;16.20;68.48
37298;BME280;30517;51.932;4.278;2022-10-15T13:40:03;100557.16;;;16.21;68.43
37298;BME280;30517;51.932;4.278;2022-10-15T13:43:20;100549.16;;;16.21;68.92
37298;BME280;30517;51.932;4.278;2022-10-15T13:46:01;100535.31;;;16.10;68.86
37298;BME280;30517;51.932;4.278;2022-10-15T13:48:42;100550.78;;;16.25;68.60
37298;BME280;30517;51.932;4.278;2022-10-15T13:51:26;100548.13;;;16.25;68.68
37298;BME280;30517;51.932;4.278;2022-10-15T13:54:15;100528.00;;;16.17;68.49
37298;BME280;30517;51.932;4.278;2022-10-15T13:56:59;100536.84;;;16.17;68.78
37298;BME280;30517;51.932;4.278;2022-10-15T13:59:43;100558.63;;;16.31;68.24
37298;BME280;30517;51.932;4.278;2022-10-15T14:02:24;100554.25;;;16.29;68.64
37298;BME280;30517;51.932;4.278;2022-10-15T14:05:15;100544.56;;;16.26;68.46
37298;BME280;30517;51.932;4.278;2022-10-15T14:07:55;100558.41;;;16.37;68.70
37298;BME280;30517;51.932;4.278;2022-10-15T14:10:37;100510.13;;;16.20;68.19
37298;BME280;30517;51.932;4.278;2022-10-15T14:13:18;100555.41;;;16.48;68.02
37298;BME280;30517;51.932;4.278;2022-10-15T14:16:10;100557.94;;;16.53;68.45
37298;BME280;30517;51.932;4.278;2022-10-15T14:19:09;100558.75;;;16.55;68.17
37298;BME280;30517;51.932;4.278;2022-10-15T14:21:51;100566.66;;;16.58;67.61
37298;BME280;30517;51.932;4.278;2022-10-15T14:24:35;100565.66;;;16.60;68.21
37298;BME280;30517;51.932;4.278;2022-10-15T14:27:19;100574.50;;;16.63;68.28
37298;BME280;30517;51.932;4.278;2022-10-15T14:30:00;100568.28;;;16.62;67.99
37298;BME280;30517;51.932;4.278;2022-10-15T14:32:46;100542.00;;;16.51;67.75
37298;BME280;30517;51.932;4.278;2022-10-15T14:35:33;100576.91;;;16.70;67.43
37298;BME280;30517;51.932;4.278;2022-10-15T14:38:15;100582.69;;;16.85;68.05
37298;BME280;30517;51.932;4.278;2022-10-15T14:41:20;100584.25;;;16.92;67.67
37298;BME280;30517;51.932;4.278;2022-10-15T14:46:51;100566.56;;;16.89;67.79
37298;BME280;30517;51.932;4.278;2022-10-15T14:49:33;100531.69;;;16.69;67.50
37298;BME280;30517;51.932;4.278;2022-10-15T14:52:16;100600.34;;;17.15;67.83
37298;BME280;30517;51.932;4.278;2022-10-15T14:57:42;100592.91;;;17.25;67.55
37298;BME280;30517;51.932;4.278;2022-10-15T15:00:25;100596.25;;;17.32;67.47
37298;BME280;30517;51.932;4.278;2022-10-15T15:03:09;100574.06;;;17.31;67.27
37298;BME280;30517;51.932;4.278;2022-10-15T15:05:54;100587.06;;;17.40;66.81
37298;BME280;30517;51.932;4.278;2022-10-15T15:08:36;100591.63;;;17.37;66.90
37298;BME280;30517;51.932;4.278;2022-10-15T15:11:19;100594.09;;;17.43;66.47
37298;BME280;30517;51.932;4.278;2022-10-15T15:14:01;100577.44;;;17.36;66.13
37298;BME280;30517;51.932;4.278;2022-10-15T15:16:42;100593.75;;;17.52;66.10
37298;BME280;30517;51.932;4.278;2022-10-15T15:19:23;100596.50;;;17.51;66.25
37298;BME280;30517;51.932;4.278;2022-10-15T15:22:04;100587.78;;;17.45;66.56
37298;BME280;30517;51.932;4.278;2022-10-15T15:24:47;100593.75;;;17.52;66.38
37298;BME280;30517;51.932;4.278;2022-10-15T15:27:30;100555.56;;;17.27;66.51
37298;BME280;30517;51.932;4.278;2022-10-15T15:30:19;100586.56;;;17.54;65.90
37298;BME280;30517;51.932;4.278;2022-10-15T15:33:00;100598.91;;;17.58;66.52
37298;BME280;30517;51.932;4.278;2022-10-15T15:35:48;100597.13;;;17.57;66.29
37298;BME280;30517;51.932;4.278;2022-10-15T15:38:33;100606.91;;;17.58;65.96